sensor_id;sensor_type;location;lat;lon;timestamp;pressure;altitude;pressure_sealevel;temperature;humidity
21300;BME280;10809;49.476;11.016;2023-09-19T00:01:25;97757.03;;;18.03;62.59
21300;BME280;10809;49.476;11.016;2023-09-19T00:04:11;97752.66;;;18.02;62.40
21300;BME280;10809;49.476;11.016;2023-09-19T00:06:42;97747.47;;;18.00;62.58
21300;BME280;10809;49.476;11.016;2023-09-19T00:09:14;97749.44;;;17.98;62.31
21300;BME280;10809;49.476;11.016;2023-09-19T00:11:49;97747.75;;;17.97;62.21
21300;BME280;10809;49.476;11.016;2023-09-19T00:14:20;97759.56;;;17.95;62.54
21300;BME280;10809;49.476;11.016;2023-09-19T00:16:50;97755.34;;;17.92;62.32
21300;BME280;10809;49.476;11.016;2023-09-19T00:19:21;97764.50;;;17.90;62.32
21300;BME280;10809;49.476;11.016;2023-09-19T00:21:51;97762.13;;;17.87;62.59
21300;BME280;10809;49.476;11.016;2023-09-19T00:24:23;97769.44;;;17.85;62.37
21300;BME280;10809;49.476;11.016;2023-09-19T00:26:54;97775.81;;;17.84;62.22
21300;BME280;10809;49.476;11.016;2023-09-19T00:29:31;97768.06;;;17.81;62.40
21300;BME280;10809;49.476;11.016;2023-09-19T00:32:03;97776.22;;;17.79;62.38
21300;BME280;10809;49.476;11.016;2023-09-19T00:34:34;97776.50;;;17.76;62.50
21300;BME280;10809;49.476;11.016;2023-09-19T00:37:05;97782.00;;;17.75;62.65
21300;BME280;10809;49.476;11.016;2023-09-19T00:39:36;97775.94;;;17.73;62.31
21300;BME280;10809;49.476;11.016;2023-09-19T00:42:07;97774.25;;;17.72;62.46
21300;BME280;10809;49.476;11.016;2023-09-19T00:44:38;97768.34;;;17.68;62.35
21300;BME280;10809;49.476;11.016;2023-09-19T00:47:10;97775.66;;;17.66;62.48
21300;BME280;10809;49.476;11.016;2023-09-19T00:49:45;97784.84;;;17.64;62.40
21300;BME280;10809;49.476;11.016;2023-09-19T00:52:19;97793.00;;;17.62;62.43
21300;BME280;10809;49.476;11.016;2023-09-19T00:54:53;97798.50;;;17.61;62.59
21300;BME280;10809;49.476;11.016;2023-09-19T00:57:25;97794.44;;;17.57;62.36
21300;BME280;10809;49.476;11.016;2023-09-19T00:59:56;97800.88;;;17.54;62.36
21300;BME280;10809;49.476;11.016;2023-09-19T01:02:27;97795.81;;;17.51;62.33
21300;BME280;10809;49.476;11.016;2023-09-19T01:04:59;97805.66;;;17.51;62.49
21300;BME280;10809;49.476;11.016;2023-09-19T01:07:36;97807.81;;;17.47;62.49
21300;BME280;10809;49.476;11.016;2023-09-19T01:10:16;97804.41;;;17.45;62.35
21300;BME280;10809;49.476;11.016;2023-09-19T01:13:13;97810.75;;;17.44;62.50
21300;BME280;10809;49.476;11.016;2023-09-19T01:19:05;97810.03;;;17.42;62.41
21300;BME280;10809;49.476;11.016;2023-09-19T01:24:44;97811.47;;;17.37;62.68
21300;BME280;10809;49.476;11.016;2023-09-19T01:30:32;97814.28;;;17.35;62.86
21300;BME280;10809;49.476;11.016;2023-09-19T01:33:07;97823.28;;;17.34;62.93
21300;BME280;10809;49.476;11.016;2023-09-19T01:35:38;97822.59;;;17.32;63.02
21300;BME280;10809;49.476;11.016;2023-09-19T01:38:12;97823.53;;;17.31;62.94
21300;BME280;10809;49.476;11.016;2023-09-19T01:40:52;97816.50;;;17.30;62.93
21300;BME280;10809;49.476;11.016;2023-09-19T01:43:42;97821.72;;;17.32;63.29
21300;BME280;10809;49.476;11.016;2023-09-19T01:46:21;97812.03;;;17.31;63.18
21300;BME280;10809;49.476;11.016;2023-09-19T01:48:59;97812.69;;;17.33;63.16
21300;BME280;10809;49.476;11.016;2023-09-19T01:51:51;97811.75;;;17.34;63.26
21300;BME280;10809;49.476;11.016;2023-09-19T01:54:27;97813.41;;;17.35;63.32
21300;BME280;10809;49.476;11.016;2023-09-19T01:57:09;97814.28;;;17.35;63.29
21300;BME280;10809;49.476;11.016;2023-09-19T01:59:54;97820.44;;;17.36;63.21
21300;BME280;10809;49.476;11.016;2023-09-19T02:02:29;97823.00;;;17.37;63.36
21300;BME280;10809;49.476;11.016;2023-09-19T02:05:04;97829.19;;;17.38;63.21
21300;BME280;10809;49.476;11.016;2023-09-19T02:07:38;97827.38;;;17.38;63.35
21300;BME280;10809;49.476;11.016;2023-09-19T02:10:14;97832.59;;;17.40;63.53
21300;BME280;10809;49.476;11.016;2023-09-19T02:13:03;97828.91;;;17.41;63.52
21300;BME280;10809;49.476;11.016;2023-09-19T02:15:34;97830.59;;;17.42;63.48
21300;BME280;10809;49.476;11.016;2023-09-19T02:18:09;97824.28;;;17.43;63.55
21300;BME280;10809;49.476;11.016;2023-09-19T02:20:39;97822.28;;;17.45;63.36
21300;BME280;10809;49.476;11.016;2023-09-19T02:23:10;97836.53;;;17.45;63.52
21300;BME280;10809;49.476;11.016;2023-09-19T02:25:52;97835.69;;;17.45;63.28
21300;BME280;10809;49.476;11.016;2023-09-19T02:28:22;97846.25;;;17.46;63.50
21300;BME280;10809;49.476;11.016;2023-09-19T02:30:52;97838.22;;;17.46;63.37
21300;BME280;10809;49.476;11.016;2023-09-19T02:33:23;97843.44;;;17.48;63.39
21300;BME280;10809;49.476;11.016;2023-09-19T02:36:04;97852.31;;;17.48;63.39
21300;BME280;10809;49.476;11.016;2023-09-19T02:38:35;97851.31;;;17.49;63.31
21300;BME280;10809;49.476;11.016;2023-09-19T02:41:07;97857.66;;;17.48;63.32
21300;BME280;10809;49.476;11.016;2023-09-19T02:43:37;97858.53;;;17.49;63.18
21300;BME280;10809;49.476;11.016;2023-09-19T02:46:08;97848.63;;;17.49;63.37
21300;BME280;10809;49.476;11.016;2023-09-19T02:48:39;97867.38;;;17.49;63.53
21300;BME280;10809;49.476;11.016;2023-09-19T02:51:09;97857.66;;;17.48;63.34
21300;BME280;10809;49.476;11.016;2023-09-19T02:53:40;97864.84;;;17.48;63.03
21300;BME280;10809;49.476;11.016;2023-09-19T02:56:13;97864.97;;;17.46;63.24
21300;BME280;10809;49.476;11.016;2023-09-19T02:58:44;97865.84;;;17.47;63.23
21300;BME280;10809;49.476;11.016;2023-09-19T03:01:15;97866.84;;;17.46;63.23
21300;BME280;10809;49.476;11.016;2023-09-19T03:03:45;97873.16;;;17.45;63.04
21300;BME280;10809;49.476;11.016;2023-09-19T03:06:16;97867.94;;;17.43;63.13
21300;BME280;10809;49.476;11.016;2023-09-19T03:08:50;97879.63;;;17.42;63.08
21300;BME280;10809;49.476;11.016;2023-09-19T03:11:23;97879.78;;;17.41;63.05
21300;BME280;10809;49.476;11.016;2023-09-19T03:13:57;97880.78;;;17.40;63.11
21300;BME280;10809;49.476;11.016;2023-09-19T03:16:28;97882.72;;;17.38;63.07
21300;BME280;10809;49.476;11.016;2023-09-19T03:19:02;97883.72;;;17.37;62.87
21300;BME280;10809;49.476;11.016;2023-09-19T03:21:35;97882.88;;;17.36;62.93
21300;BME280;10809;49.476;11.016;2023-09-19T03:24:06;97882.16;;;17.34;62.88
21300;BME280;10809;49.476;11.016;2023-09-19T03:26:37;97885.97;;;17.32;62.84
21300;BME280;10809;49.476;11.016;2023-09-19T03:29:08;97886.09;;;17.30;62.79
21300;BME280;10809;49.476;11.016;2023-09-19T03:31:43;97885.38;;;17.28;63.04
21300;BME280;10809;49.476;11.016;2023-09-19T03:34:14;97885.66;;;17.25;62.99
21300;BME280;10809;49.476;11.016;2023-09-19T03:36:44;97878.75;;;17.23;63.12
21300;BME280;10809;49.476;11.016;2023-09-19T03:39:15;97886.91;;;17.21;63.07
21300;BME280;10809;49.476;11.016;2023-09-19T03:41:47;97887.91;;;17.20;62.93
21300;BME280;10809;49.476;11.016;2023-09-19T03:44:18;97894.22;;;17.19;63.21
21300;BME280;10809;49.476;11.016;2023-09-19T03:46:48;97899.72;;;17.18;62.99
21300;BME280;10809;49.476;11.016;2023-09-19T03:49:19;97890.00;;;17.17;63.05
21300;BME280;10809;49.476;11.016;2023-09-19T03:51:49;97903.50;;;17.15;63.05
21300;BME280;10809;49.476;11.016;2023-09-19T03:54:20;97898.16;;;17.15;63.20
21300;BME280;10809;49.476;11.016;2023-09-19T03:56:50;97893.06;;;17.12;63.17
21300;BME280;10809;49.476;11.016;2023-09-19T03:59:20;97892.19;;;17.12;63.05
21300;BME280;10809;49.476;11.016;2023-09-19T04:01:52;97905.72;;;17.10;63.20
21300;BME280;10809;49.476;11.016;2023-09-19T04:04:26;97904.03;;;17.09;63.11
21300;BME280;10809;49.476;11.016;2023-09-19T04:07:02;97911.34;;;17.07;63.09
21300;BME280;10809;49.476;11.016;2023-09-19T04:09:33;97904.28;;;17.06;62.99
21300;BME280;10809;49.476;11.016;2023-09-19T04:12:04;97906.25;;;17.04;63.20
21300;BME280;10809;49.476;11.016;2023-09-19T04:14:35;97916.13;;;17.04;63.20
21300;BME280;10809;49.476;11.016;2023-09-19T04:17:05;97913.56;;;17.02;63.21
21300;BME280;10809;49.476;11.016;2023-09-19T04:19:36;97923.44;;;17.02;63.23
21300;BME280;10809;49.476;11.016;2023-09-19T04:22:09;97926.22;;;17.00;63.24
21300;BME280;10809;49.476;11.016;2023-09-19T04:24:42;97921.84;;;16.99;63.16
21300;BME280;10809;49.476;11.016;2023-09-19T04:27:13;97922.84;;;16.98;63.24
21300;BME280;10809;49.476;11.016;2023-09-19T04:29:44;97930.88;;;16.98;63.46
21300;BME280;10809;49.476;11.016;2023-09-19T04:32:18;97929.19;;;16.97;63.32
21300;BME280;10809;49.476;11.016;2023-09-19T04:34:48;97927.34;;;16.98;63.75
21300;BME280;10809;49.476;11.016;2023-09-19T04:37:23;97930.13;;;16.96;63.60
21300;BME280;10809;49.476;11.016;2023-09-19T04:40:00;97929.19;;;16.97;63.61
21300;BME280;10809;49.476;11.016;2023-09-19T04:42:34;97935.34;;;16.98;63.68
21300;BME280;10809;49.476;11.016;2023-09-19T04:45:06;97938.03;;;16.98;63.67
21300;BME280;10809;49.476;11.016;2023-09-19T04:47:37;97934.41;;;16.99;63.70
21300;BME280;10809;49.476;11.016;2023-09-19T04:50:11;97936.94;;;17.00;63.54
21300;BME280;10809;49.476;11.016;2023-09-19T04:52:53;97939.63;;;17.00;63.68
21300;BME280;10809;49.476;11.016;2023-09-19T04:55:24;97939.63;;;17.00;63.88
21300;BME280;10809;49.476;11.016;2023-09-19T04:57:54;97942.28;;;17.00;63.63
21300;BME280;10809;49.476;11.016;2023-09-19T05:00:25;97945.66;;;17.02;63.80
21300;BME280;10809;49.476;11.016;2023-09-19T05:02:57;97945.66;;;17.02;63.75
21300;BME280;10809;49.476;11.016;2023-09-19T05:05:28;97943.84;;;17.03;64.11
21300;BME280;10809;49.476;11.016;2023-09-19T05:07:58;97950.03;;;17.03;63.74
21300;BME280;10809;49.476;11.016;2023-09-19T05:10:29;97955.41;;;17.03;63.69
21300;BME280;10809;49.476;11.016;2023-09-19T05:13:03;97951.84;;;17.03;63.64
21300;BME280;10809;49.476;11.016;2023-09-19T05:15:34;97953.56;;;17.04;63.67
21300;BME280;10809;49.476;11.016;2023-09-19T05:18:05;97951.00;;;17.02;63.67
21300;BME280;10809;49.476;11.016;2023-09-19T05:20:39;97948.22;;;17.04;63.68
21300;BME280;10809;49.476;11.016;2023-09-19T05:23:09;97952.59;;;17.05;63.99
21300;BME280;10809;49.476;11.016;2023-09-19T05:25:42;97956.13;;;17.05;64.01
21300;BME280;10809;49.476;11.016;2023-09-19T05:28:13;97961.47;;;17.05;63.88
21300;BME280;10809;49.476;11.016;2023-09-19T05:30:48;97964.00;;;17.07;63.91
21300;BME280;10809;49.476;11.016;2023-09-19T05:33:19;97965.81;;;17.06;64.01
21300;BME280;10809;49.476;11.016;2023-09-19T05:35:53;97969.34;;;17.07;63.90
21300;BME280;10809;49.476;11.016;2023-09-19T05:38:24;97978.22;;;17.07;63.67
21300;BME280;10809;49.476;11.016;2023-09-19T05:40:57;97987.09;;;17.08;63.93
21300;BME280;10809;49.476;11.016;2023-09-19T05:43:34;97976.53;;;17.06;63.94
21300;BME280;10809;49.476;11.016;2023-09-19T05:46:07;97981.75;;;17.08;63.96
21300;BME280;10809;49.476;11.016;2023-09-19T05:48:38;97988.78;;;17.09;64.09
21300;BME280;10809;49.476;11.016;2023-09-19T05:51:09;97987.94;;;17.08;63.89
21300;BME280;10809;49.476;11.016;2023-09-19T05:53:49;97992.31;;;17.09;64.04
21300;BME280;10809;49.476;11.016;2023-09-19T05:56:20;98000.34;;;17.09;64.15
21300;BME280;10809;49.476;11.016;2023-09-19T05:58:50;97994.00;;;17.10;64.03
21300;BME280;10809;49.476;11.016;2023-09-19T06:01:23;97999.34;;;17.10;64.19
21300;BME280;10809;49.476;11.016;2023-09-19T06:03:53;98004.56;;;17.12;64.38
21300;BME280;10809;49.476;11.016;2023-09-19T06:06:24;98006.31;;;17.13;64.18
21300;BME280;10809;49.476;11.016;2023-09-19T06:08:54;98008.84;;;17.14;64.36
21300;BME280;10809;49.476;11.016;2023-09-19T06:11:27;98019.44;;;17.16;64.19
21300;BME280;10809;49.476;11.016;2023-09-19T06:13:59;98013.09;;;17.17;64.37
21300;BME280;10809;49.476;11.016;2023-09-19T06:16:30;98022.66;;;17.19;64.63
21300;BME280;10809;49.476;11.016;2023-09-19T06:19:13;98026.06;;;17.21;64.39
21300;BME280;10809;49.476;11.016;2023-09-19T06:21:53;98022.38;;;17.22;64.33
21300;BME280;10809;49.476;11.016;2023-09-19T06:24:24;98032.97;;;17.24;64.34
21300;BME280;10809;49.476;11.016;2023-09-19T06:26:55;98035.50;;;17.25;64.33
21300;BME280;10809;49.476;11.016;2023-09-19T06:29:26;98031.88;;;17.26;64.25
21300;BME280;10809;49.476;11.016;2023-09-19T06:31:56;98034.41;;;17.28;64.33
21300;BME280;10809;49.476;11.016;2023-09-19T06:34:30;98035.25;;;17.28;64.29
21300;BME280;10809;49.476;11.016;2023-09-19T06:37:04;98043.84;;;17.32;64.18
21300;BME280;10809;49.476;11.016;2023-09-19T06:39:37;98037.66;;;17.31;64.19
21300;BME280;10809;49.476;11.016;2023-09-19T06:42:07;98042.72;;;17.34;64.07
21300;BME280;10809;49.476;11.016;2023-09-19T06:44:39;98044.44;;;17.35;64.31
21300;BME280;10809;49.476;11.016;2023-09-19T06:47:12;98046.00;;;17.38;64.60
21300;BME280;10809;49.476;11.016;2023-09-19T06:49:42;98047.56;;;17.40;64.51
21300;BME280;10809;49.476;11.016;2023-09-19T06:52:17;98048.13;;;17.44;64.64
21300;BME280;10809;49.476;11.016;2023-09-19T06:54:51;98048.72;;;17.47;64.80
21300;BME280;10809;49.476;11.016;2023-09-19T06:57:22;98044.66;;;17.53;64.78
21300;BME280;10809;49.476;11.016;2023-09-19T06:59:53;98054.69;;;17.60;64.63
21300;BME280;10809;49.476;11.016;2023-09-19T07:02:23;98068.53;;;17.65;64.75
21300;BME280;10809;49.476;11.016;2023-09-19T07:04:53;98062.63;;;17.71;64.44
21300;BME280;10809;49.476;11.016;2023-09-19T07:07:24;98066.59;;;17.77;64.25
21300;BME280;10809;49.476;11.016;2023-09-19T07:09:54;98066.91;;;17.83;64.14
21300;BME280;10809;49.476;11.016;2023-09-19T07:12:24;98075.13;;;17.91;63.98
21300;BME280;10809;49.476;11.016;2023-09-19T07:14:55;98069.78;;;18.01;64.35
21300;BME280;10809;49.476;11.016;2023-09-19T07:17:27;98065.91;;;18.15;64.22
21300;BME280;10809;49.476;11.016;2023-09-19T07:19:59;98061.84;;;18.30;63.97
21300;BME280;10809;49.476;11.016;2023-09-19T07:22:30;98073.69;;;18.46;63.91
21300;BME280;10809;49.476;11.016;2023-09-19T07:25:00;98061.28;;;18.64;63.78
21300;BME280;10809;49.476;11.016;2023-09-19T07:27:30;98062.44;;;18.81;63.85
21300;BME280;10809;49.476;11.016;2023-09-19T07:30:04;98065.38;;;18.97;62.99
21300;BME280;10809;49.476;11.016;2023-09-19T07:32:35;98075.09;;;19.07;62.62
21300;BME280;10809;49.476;11.016;2023-09-19T07:35:10;98077.78;;;19.17;62.44
21300;BME280;10809;49.476;11.016;2023-09-19T07:37:42;98079.88;;;19.23;61.71
21300;BME280;10809;49.476;11.016;2023-09-19T07:40:12;98075.09;;;19.26;61.49
21300;BME280;10809;49.476;11.016;2023-09-19T07:42:43;98080.03;;;19.31;60.94
21300;BME280;10809;49.476;11.016;2023-09-19T07:45:14;98083.41;;;19.33;61.04
21300;BME280;10809;49.476;11.016;2023-09-19T07:47:51;98084.09;;;19.35;60.79
21300;BME280;10809;49.476;11.016;2023-09-19T07:50:21;98086.94;;;19.33;60.36
21300;BME280;10809;49.476;11.016;2023-09-19T07:52:52;98076.63;;;19.29;60.23
21300;BME280;10809;49.476;11.016;2023-09-19T07:55:23;98085.25;;;19.23;60.20
21300;BME280;10809;49.476;11.016;2023-09-19T07:57:55;98081.31;;;19.17;60.15
21300;BME280;10809;49.476;11.016;2023-09-19T08:00:26;98087.97;;;19.13;59.91
21300;BME280;10809;49.476;11.016;2023-09-19T08:02:56;98092.63;;;19.11;60.17
21300;BME280;10809;49.476;11.016;2023-09-19T08:05:26;98087.28;;;19.11;60.50
21300;BME280;10809;49.476;11.016;2023-09-19T08:07:57;98088.81;;;19.14;60.58
21300;BME280;10809;49.476;11.016;2023-09-19T08:10:27;98096.56;;;19.17;60.40
21300;BME280;10809;49.476;11.016;2023-09-19T08:12:57;98101.66;;;19.20;60.52
21300;BME280;10809;49.476;11.016;2023-09-19T08:15:29;98102.38;;;19.22;60.39
21300;BME280;10809;49.476;11.016;2023-09-19T08:17:59;98110.13;;;19.25;60.28
21300;BME280;10809;49.476;11.016;2023-09-19T08:20:30;98109.13;;;19.26;60.31
21300;BME280;10809;49.476;11.016;2023-09-19T08:23:01;98108.16;;;19.27;59.99
21300;BME280;10809;49.476;11.016;2023-09-19T08:25:32;98113.09;;;19.31;60.48
21300;BME280;10809;49.476;11.016;2023-09-19T08:28:02;98117.03;;;19.37;60.81
21300;BME280;10809;49.476;11.016;2023-09-19T08:30:34;98125.06;;;19.46;61.10
21300;BME280;10809;49.476;11.016;2023-09-19T08:33:04;98121.25;;;19.58;61.52
21300;BME280;10809;49.476;11.016;2023-09-19T08:35:38;98121.03;;;19.79;62.39
21300;BME280;10809;49.476;11.016;2023-09-19T08:38:11;98123.91;;;20.05;63.04
21300;BME280;10809;49.476;11.016;2023-09-19T08:40:42;98123.94;;;20.32;62.53
21300;BME280;10809;49.476;11.016;2023-09-19T08:43:13;98126.06;;;20.55;61.49
21300;BME280;10809;49.476;11.016;2023-09-19T08:45:44;98129.25;;;20.68;60.92
21300;BME280;10809;49.476;11.016;2023-09-19T08:48:27;98130.56;;;20.82;60.16
21300;BME280;10809;49.476;11.016;2023-09-19T08:51:26;98142.38;;;20.89;59.54
21300;BME280;10809;49.476;11.016;2023-09-19T08:54:14;98140.25;;;20.92;59.05
21300;BME280;10809;49.476;11.016;2023-09-19T08:56:46;98139.22;;;20.93;58.27
21300;BME280;10809;49.476;11.016;2023-09-19T08:59:22;98149.16;;;20.93;57.93
21300;BME280;10809;49.476;11.016;2023-09-19T09:01:57;98148.63;;;20.89;57.35
21300;BME280;10809;49.476;11.016;2023-09-19T09:04:32;98148.06;;;20.86;57.71
21300;BME280;10809;49.476;11.016;2023-09-19T09:07:03;98153.06;;;20.81;57.16
21300;BME280;10809;49.476;11.016;2023-09-19T09:09:34;98152.16;;;20.72;56.96
21300;BME280;10809;49.476;11.016;2023-09-19T09:12:06;98149.34;;;20.64;56.29
21300;BME280;10809;49.476;11.016;2023-09-19T09:14:37;98145.03;;;20.54;56.12
21300;BME280;10809;49.476;11.016;2023-09-19T09:17:08;98156.16;;;20.41;55.81
21300;BME280;10809;49.476;11.016;2023-09-19T09:19:39;98152.28;;;20.26;55.80
21300;BME280;10809;49.476;11.016;2023-09-19T09:22:11;98156.41;;;20.11;55.80
21300;BME280;10809;49.476;11.016;2023-09-19T09:24:52;98149.84;;;19.96;55.86
21300;BME280;10809;49.476;11.016;2023-09-19T09:27:24;98165.31;;;19.85;55.83
21300;BME280;10809;49.476;11.016;2023-09-19T09:29:54;98173.69;;;19.72;55.82
21300;BME280;10809;49.476;11.016;2023-09-19T09:32:27;98175.56;;;19.62;55.58
21300;BME280;10809;49.476;11.016;2023-09-19T09:35:00;98177.38;;;19.52;55.80
21300;BME280;10809;49.476;11.016;2023-09-19T09:37:31;98176.41;;;19.43;56.02
21300;BME280;10809;49.476;11.016;2023-09-19T09:40:05;98165.22;;;19.38;56.25
21300;BME280;10809;49.476;11.016;2023-09-19T09:42:45;98174.44;;;19.36;56.40
21300;BME280;10809;49.476;11.016;2023-09-19T09:45:23;98177.13;;;19.36;56.34
21300;BME280;10809;49.476;11.016;2023-09-19T09:48:03;98177.94;;;19.36;56.69
21300;BME280;10809;49.476;11.016;2023-09-19T09:50:35;98166.22;;;19.37;56.54
21300;BME280;10809;49.476;11.016;2023-09-19T09:53:27;98172.28;;;19.39;56.51
21300;BME280;10809;49.476;11.016;2023-09-19T09:56:08;98173.13;;;19.40;56.58
21300;BME280;10809;49.476;11.016;2023-09-19T09:58:50;98178.22;;;19.43;56.25
21300;BME280;10809;49.476;11.016;2023-09-19T10:01:26;98177.22;;;19.44;56.59
21300;BME280;10809;49.476;11.016;2023-09-19T10:03:59;98178.78;;;19.46;56.25
21300;BME280;10809;49.476;11.016;2023-09-19T10:06:40;98174.97;;;19.49;56.40
21300;BME280;10809;49.476;11.016;2023-09-19T10:09:17;98175.72;;;19.51;56.53
21300;BME280;10809;49.476;11.016;2023-09-19T10:12:03;98171.72;;;19.55;56.62
21300;BME280;10809;49.476;11.016;2023-09-19T10:14:37;98165.94;;;19.59;56.53
21300;BME280;10809;49.476;11.016;2023-09-19T10:17:10;98159.00;;;19.66;56.70
21300;BME280;10809;49.476;11.016;2023-09-19T10:19:46;98165.31;;;19.75;56.96
21300;BME280;10809;49.476;11.016;2023-09-19T10:22:26;98168.16;;;19.83;56.05
21300;BME280;10809;49.476;11.016;2023-09-19T10:24:57;98162.31;;;19.88;55.71
21300;BME280;10809;49.476;11.016;2023-09-19T10:27:30;98150.56;;;19.89;55.40
21300;BME280;10809;49.476;11.016;2023-09-19T10:30:08;98165.00;;;19.88;55.25
21300;BME280;10809;49.476;11.016;2023-09-19T10:32:40;98167.00;;;19.86;55.40
21300;BME280;10809;49.476;11.016;2023-09-19T10:35:11;98172.81;;;19.81;55.02
21300;BME280;10809;49.476;11.016;2023-09-19T10:37:45;98176.63;;;19.78;55.12
21300;BME280;10809;49.476;11.016;2023-09-19T10:40:20;98164.31;;;19.76;55.43
21300;BME280;10809;49.476;11.016;2023-09-19T10:42:52;98176.94;;;19.75;55.29
21300;BME280;10809;49.476;11.016;2023-09-19T10:45:24;98168.00;;;19.75;55.06
21300;BME280;10809;49.476;11.016;2023-09-19T10:47:56;98178.75;;;19.75;55.42
21300;BME280;10809;49.476;11.016;2023-09-19T10:50:30;98173.25;;;19.76;55.57
21300;BME280;10809;49.476;11.016;2023-09-19T10:53:04;98171.13;;;19.80;55.52
21300;BME280;10809;49.476;11.016;2023-09-19T10:55:37;98168.00;;;19.85;55.78
21300;BME280;10809;49.476;11.016;2023-09-19T10:58:08;98165.69;;;19.90;55.62
21300;BME280;10809;49.476;11.016;2023-09-19T11:00:55;98163.28;;;19.96;55.85
21300;BME280;10809;49.476;11.016;2023-09-19T11:03:26;98165.22;;;20.04;55.62
21300;BME280;10809;49.476;11.016;2023-09-19T11:06:11;98178.78;;;20.12;55.53
21300;BME280;10809;49.476;11.016;2023-09-19T11:30:41;98155.19;;;20.42;54.45
21300;BME280;10809;49.476;11.016;2023-09-19T11:33:26;98167.06;;;20.40;53.98
21300;BME280;10809;49.476;11.016;2023-09-19T11:36:15;98168.38;;;20.36;53.59
21300;BME280;10809;49.476;11.016;2023-09-19T11:49:27;98152.47;;;20.15;53.74
21300;BME280;10809;49.476;11.016;2023-09-19T11:52:05;98155.00;;;20.17;53.92
21300;BME280;10809;49.476;11.016;2023-09-19T11:54:36;98158.22;;;20.20;54.02
21300;BME280;10809;49.476;11.016;2023-09-19T11:57:11;98150.59;;;20.25;53.97
21300;BME280;10809;49.476;11.016;2023-09-19T11:59:42;98148.31;;;20.30;53.29
21300;BME280;10809;49.476;11.016;2023-09-19T12:02:19;98162.28;;;20.34;53.39
21300;BME280;10809;49.476;11.016;2023-09-19T12:05:02;98144.72;;;20.39;53.25
21300;BME280;10809;49.476;11.016;2023-09-19T12:07:42;98151.47;;;20.43;53.37
21300;BME280;10809;49.476;11.016;2023-09-19T12:10:13;98147.19;;;20.50;52.93
21300;BME280;10809;49.476;11.016;2023-09-19T12:12:47;98143.88;;;20.56;52.89
21300;BME280;10809;49.476;11.016;2023-09-19T12:15:25;98140.63;;;20.62;52.59
21300;BME280;10809;49.476;11.016;2023-09-19T12:18:07;98143.66;;;20.67;52.52
21300;BME280;10809;49.476;11.016;2023-09-19T12:20:42;98141.22;;;20.74;52.40
21300;BME280;10809;49.476;11.016;2023-09-19T12:23:16;98139.59;;;20.81;52.09
21300;BME280;10809;49.476;11.016;2023-09-19T12:25:47;98145.06;;;20.89;52.47
21300;BME280;10809;49.476;11.016;2023-09-19T12:28:24;98142.34;;;20.98;52.76
21300;BME280;10809;49.476;11.016;2023-09-19T12:30:56;98134.31;;;21.06;52.57
21300;BME280;10809;49.476;11.016;2023-09-19T12:33:31;98138.81;;;21.15;51.69
21300;BME280;10809;49.476;11.016;2023-09-19T12:36:22;98133.47;;;21.23;52.20
21300;BME280;10809;49.476;11.016;2023-09-19T12:38:59;98132.84;;;21.29;51.82
21300;BME280;10809;49.476;11.016;2023-09-19T12:41:30;98128.69;;;21.35;51.67
21300;BME280;10809;49.476;11.016;2023-09-19T12:44:01;98130.91;;;21.39;51.48
21300;BME280;10809;49.476;11.016;2023-09-19T12:46:35;98132.13;;;21.45;51.56
21300;BME280;10809;49.476;11.016;2023-09-19T12:49:19;98138.88;;;21.49;51.35
21300;BME280;10809;49.476;11.016;2023-09-19T12:51:54;98136.88;;;21.51;50.79
21300;BME280;10809;49.476;11.016;2023-09-19T12:54:44;98139.59;;;21.51;50.62
21300;BME280;10809;49.476;11.016;2023-09-19T12:57:25;98141.56;;;21.49;50.00
21300;BME280;10809;49.476;11.016;2023-09-19T12:59:56;98129.44;;;21.45;49.70
21300;BME280;10809;49.476;11.016;2023-09-19T13:02:34;98129.75;;;21.42;49.81
21300;BME280;10809;49.476;11.016;2023-09-19T13:05:04;98121.28;;;21.37;49.46
21300;BME280;10809;49.476;11.016;2023-09-19T13:07:44;98118.09;;;21.33;49.82
21300;BME280;10809;49.476;11.016;2023-09-19T13:10:22;98118.25;;;21.32;49.74
21300;BME280;10809;49.476;11.016;2023-09-19T13:12:54;98127.13;;;21.32;50.22
21300;BME280;10809;49.476;11.016;2023-09-19T13:15:24;98110.00;;;21.33;49.89
21300;BME280;10809;49.476;11.016;2023-09-19T13:17:57;98115.06;;;21.36;49.76
21300;BME280;10809;49.476;11.016;2023-09-19T13:20:30;98117.44;;;21.39;49.72
21300;BME280;10809;49.476;11.016;2023-09-19T13:23:02;98110.88;;;21.42;49.43
21300;BME280;10809;49.476;11.016;2023-09-19T13:25:40;98113.13;;;21.46;49.43
21300;BME280;10809;49.476;11.016;2023-09-19T13:28:10;98117.16;;;21.50;49.44
21300;BME280;10809;49.476;11.016;2023-09-19T13:30:41;98116.69;;;21.55;49.56
21300;BME280;10809;49.476;11.016;2023-09-19T13:33:15;98105.44;;;21.60;49.31
21300;BME280;10809;49.476;11.016;2023-09-19T13:35:51;98102.44;;;21.63;49.33
21300;BME280;10809;49.476;11.016;2023-09-19T13:38:21;98107.41;;;21.67;49.37
21300;BME280;10809;49.476;11.016;2023-09-19T13:40:52;98104.22;;;21.72;49.40
21300;BME280;10809;49.476;11.016;2023-09-19T13:43:22;98106.28;;;21.78;49.35
21300;BME280;10809;49.476;11.016;2023-09-19T13:45:53;98119.13;;;21.84;49.34
21300;BME280;10809;49.476;11.016;2023-09-19T13:48:23;98105.16;;;21.88;49.20
21300;BME280;10809;49.476;11.016;2023-09-19T13:50:54;98105.50;;;21.93;48.71
21300;BME280;10809;49.476;11.016;2023-09-19T13:53:25;98105.88;;;21.98;48.93
21300;BME280;10809;49.476;11.016;2023-09-19T13:55:56;98106.41;;;22.02;48.24
21300;BME280;10809;49.476;11.016;2023-09-19T13:58:26;98094.59;;;22.03;48.39
21300;BME280;10809;49.476;11.016;2023-09-19T14:00:57;98098.97;;;22.04;48.27
21300;BME280;10809;49.476;11.016;2023-09-19T14:03:28;98096.28;;;22.04;48.15
21300;BME280;10809;49.476;11.016;2023-09-19T14:05:59;98109.59;;;22.05;48.22